Time,TemperatureF,DewpointF,PressureIn,WindDirection,WindDirectionDegrees,WindSpeedMPH,WindSpeedGustMPH,Humidity,HourlyPrecipIn,Conditions,Clouds,dailyrainin,SoftwareType,DateUTC
2013-03-28 00:02:00,34.6,32.8,31.02,West,267,0.0,0.0,93,0.00,RA,RA,0.00,WeatherDisplay:10.37,2013-03-28 04:02:00,
2013-03-28 00:07:00,34.6,32.8,31.02,West,267,0.0,1.0,93,0.00,RA,RA,0.00,WeatherDisplay:10.37,2013-03-28 04:07:00,
2013-03-28 00:12:00,34.6,33.0,31.02,West,267,0.0,2.0,94,0.01,RA,RA,0.01,WeatherDisplay:10.37,2013-03-28 04:12:00,
2013-03-28 00:17:00,34.5,33.0,31.02,West,267,0.0,2.0,94,0.00,RA,RA,0.01,WeatherDisplay:10.37,2013-03-28 04:17:00,
2013-03-28 00:22:00,34.4,32.9,31.02,West,267,0.0,2.0,94,0.00,CLR,CLR,0.01,WeatherDisplay:10.37,2013-03-28 04:22:00,
2013-03-28 00:27:00,34.4,32.9,31.02,West,267,0.0,0.0,94,0.00,CLR,CLR,0.01,WeatherDisplay:10.37,2013-03-28 04:27:00,
2013-03-28 00:37:00,34.3,32.8,31.02,West,267,0.0,3.0,94,0.00,CLR,CLR,0.01,WeatherDisplay:10.37,2013-03-28 04:37:00,
2013-03-28 00:42:00,34.3,32.7,31.02,West,267,0.0,1.0,94,0.00,CLR,CLR,0.01,WeatherDisplay:10.37,2013-03-28 04:42:00,
2013-03-28 00:47:00,34.3,32.7,31.02,West,267,0.0,2.0,94,0.00,CLR,CLR,0.01,WeatherDisplay:10.37,2013-03-28 04:47:00,
2013-03-28 00:52:00,34.3,33.0,31.02,West,267,1.0,3.0,95,0.00,CLR,CLR,0.01,WeatherDisplay:10.37,2013-03-28 04:52:00,
2013-03-28 00:57:00,34.3,33.0,31.02,West,267,1.0,3.0,95,0.00,CLR,CLR,0.01,WeatherDisplay:10.37,2013-03-28 04:57:00,
2013-03-28 01:02:00,34.3,33.0,31.02,West,264,1.0,4.0,95,0.00,CLR,CLR,0.01,WeatherDisplay:10.37,2013-03-28 05:02:00,
2013-03-28 01:07:00,34.4,33.1,31.01,WSW,245,2.0,5.0,95,0.01,RA,RA,0.02,WeatherDisplay:10.37,2013-03-28 05:07:00,
2013-03-28 01:12:00,34.4,33.1,31.01,WSW,238,1.0,5.0,95,0.00,RA,RA,0.02,WeatherDisplay:10.37,2013-03-28 05:12:00,
2013-03-28 01:17:00,34.4,33.1,31.01,WSW,238,1.0,4.0,95,0.00,,,0.02,WeatherDisplay:10.37,2013-03-28 05:17:00,
2013-03-28 01:22:00,34.5,33.2,31.01,WSW,238,2.0,4.0,95,0.00,CLR,CLR,0.02,WeatherDisplay:10.37,2013-03-28 05:22:00,
2013-03-28 01:27:00,34.5,33.2,31.02,WSW,240,3.0,5.0,95,0.00,CLR,CLR,0.02,WeatherDisplay:10.37,2013-03-28 05:27:00,
2013-03-28 01:32:00,34.6,33.3,31.02,WSW,244,2.0,4.0,95,0.00,CLR,CLR,0.02,WeatherDisplay:10.37,2013-03-28 05:32:00,
2013-03-28 01:37:00,34.6,33.3,31.02,WSW,249,2.0,5.0,95,0.00,CLR,CLR,0.02,WeatherDisplay:10.37,2013-03-28 05:37:00,
2013-03-28 01:42:00,34.7,33.4,31.02,WSW,254,2.0,5.0,95,0.00,CLR,CLR,0.02,WeatherDisplay:10.37,2013-03-28 05:42:00,
2013-03-28 01:47:00,34.8,33.5,31.02,WSW,255,1.0,5.0,95,0.00,CLR,CLR,0.02,WeatherDisplay:10.37,2013-03-28 05:47:00,
2013-03-28 01:57:00,34.9,33.6,31.02,WSW,256,1.0,3.0,95,0.00,CLR,CLR,0.02,WeatherDisplay:10.37,2013-03-28 05:57:00,
2013-03-28 02:02:00,34.9,33.6,31.02,West,265,5.0,7.0,95,0.00,CLR,CLR,0.02,WeatherDisplay:10.37,2013-03-28 06:02:00,
2013-03-28 02:07:00,35.0,33.7,31.03,WNW,287,3.0,5.0,95,0.00,CLR,CLR,0.02,WeatherDisplay:10.37,2013-03-28 06:07:00,
2013-03-28 02:12:00,35.0,33.7,31.03,NW,310,1.0,3.0,95,0.00,CLR,CLR,0.02,WeatherDisplay:10.37,2013-03-28 06:12:00,
2013-03-28 02:17:00,35.1,33.8,31.03,WNW,292,1.0,4.0,95,0.00,CLR,CLR,0.02,WeatherDisplay:10.37,2013-03-28 06:17:00,
2013-03-28 02:22:00,35.0,33.7,31.03,West,273,1.0,4.0,95,0.01,RA,RA,0.03,WeatherDisplay:10.37,2013-03-28 06:22:00,
2013-03-28 02:27:00,35.0,33.4,31.03,West,265,0.0,5.0,94,0.00,RA,RA,0.03,WeatherDisplay:10.37,2013-03-28 06:27:00,
2013-03-28 02:32:00,35.0,33.4,31.03,WNW,296,1.0,5.0,94,0.00,CLR,CLR,0.03,WeatherDisplay:10.37,2013-03-28 06:32:00,
2013-03-28 02:37:00,34.9,33.3,31.03,NW,308,2.0,6.0,94,0.00,CLR,CLR,0.03,WeatherDisplay:10.37,2013-03-28 06:37:00,
2013-03-28 02:42:00,34.8,33.2,31.03,NW,310,3.0,6.0,94,0.00,CLR,CLR,0.03,WeatherDisplay:10.37,2013-03-28 06:42:00,
2013-03-28 02:47:00,34.7,33.2,31.03,WNW,297,0.0,4.0,94,0.00,CLR,CLR,0.03,WeatherDisplay:10.37,2013-03-28 06:47:00,
2013-03-28 02:52:00,34.7,33.2,31.03,NW,304,1.0,6.0,94,0.00,CLR,CLR,0.03,WeatherDisplay:10.37,2013-03-28 06:52:00,
2013-03-28 02:57:00,34.6,33.1,31.03,NW,310,1.0,5.0,94,0.00,CLR,CLR,0.03,WeatherDisplay:10.37,2013-03-28 06:57:00,
2013-03-28 03:02:00,34.5,33.0,31.03,WNW,289,1.0,6.0,94,0.00,CLR,CLR,0.03,WeatherDisplay:10.37,2013-03-28 07:02:00,
2013-03-28 03:12:00,34.4,32.8,31.03,WNW,300,0.0,8.0,94,0.00,CLR,CLR,0.03,WeatherDisplay:10.37,2013-03-28 07:12:00,
2013-03-28 03:17:00,34.3,32.8,31.03,NW,313,1.0,6.0,94,0.00,CLR,CLR,0.03,WeatherDisplay:10.37,2013-03-28 07:17:00,
2013-03-28 03:22:00,34.2,32.7,31.03,WNW,290,0.0,5.0,94,0.00,CLR,CLR,0.03,WeatherDisplay:10.37,2013-03-28 07:22:00,
2013-03-28 03:32:00,34.1,32.6,31.03,WNW,288,2.0,6.0,94,0.00,CLR,CLR,0.03,WeatherDisplay:10.37,2013-03-28 07:32:00,
2013-03-28 03:37:00,34.0,32.5,31.03,West,267,1.0,4.0,94,0.00,CLR,CLR,0.03,WeatherDisplay:10.37,2013-03-28 07:37:00,
2013-03-28 03:42:00,34.0,32.5,31.03,West,262,3.0,6.0,94,0.00,CLR,CLR,0.03,WeatherDisplay:10.37,2013-03-28 07:42:00,
2013-03-28 03:47:00,34.0,32.5,31.03,West,281,2.0,5.0,94,0.01,RA,RA,0.04,WeatherDisplay:10.37,2013-03-28 07:47:00,
2013-03-28 03:52:00,34.1,32.6,31.03,WNW,295,0.0,6.0,94,0.00,RA,RA,0.04,WeatherDisplay:10.37,2013-03-28 07:52:00,
2013-03-28 03:57:00,34.1,32.6,31.03,NW,304,1.0,4.0,94,0.00,,,0.04,WeatherDisplay:10.37,2013-03-28 07:57:00,
2013-03-28 04:02:00,34.1,32.6,31.03,WNW,291,1.0,3.0,94,0.00,CLR,CLR,0.04,WeatherDisplay:10.37,2013-03-28 08:02:00,
2013-03-28 04:07:00,34.1,32.5,31.03,WNW,294,0.0,4.0,94,0.00,CLR,CLR,0.04,WeatherDisplay:10.37,2013-03-28 08:07:00,
2013-03-28 04:12:00,34.0,32.5,31.02,WNW,295,0.0,2.0,94,0.00,CLR,CLR,0.04,WeatherDisplay:10.37,2013-03-28 08:12:00,
2013-03-28 04:17:00,34.0,32.7,31.02,WNW,295,0.0,2.0,95,0.00,CLR,CLR,0.04,WeatherDisplay:10.37,2013-03-28 08:17:00,
2013-03-28 04:22:00,34.0,32.7,31.02,WNW,295,1.0,6.0,95,0.00,CLR,CLR,0.04,WeatherDisplay:10.37,2013-03-28 08:22:00,
2013-03-28 04:27:00,34.0,32.7,31.02,NW,316,0.0,5.0,95,0.00,CLR,CLR,0.04,WeatherDisplay:10.37,2013-03-28 08:27:00,
2013-03-28 04:32:00,34.0,32.7,31.02,WNW,294,2.0,7.0,95,0.00,CLR,CLR,0.04,WeatherDisplay:10.37,2013-03-28 08:32:00,
2013-03-28 04:37:00,34.0,32.8,31.03,West,279,1.0,4.0,95,0.00,CLR,CLR,0.04,WeatherDisplay:10.37,2013-03-28 08:37:00,
2013-03-28 04:42:00,34.0,32.8,31.03,West,280,2.0,5.0,95,0.00,CLR,CLR,0.04,WeatherDisplay:10.37,2013-03-28 08:42:00,
2013-03-28 04:47:00,34.0,32.7,31.03,WNW,294,0.0,4.0,95,0.00,CLR,CLR,0.04,WeatherDisplay:10.37,2013-03-28 08:47:00,
2013-03-28 04:52:00,34.0,32.7,31.03,NW,312,0.0,3.0,95,0.00,CLR,CLR,0.04,WeatherDisplay:10.37,2013-03-28 08:52:00,
2013-03-28 04:57:00,34.0,32.7,31.03,WNW,282,2.0,6.0,95,0.00,CLR,CLR,0.04,WeatherDisplay:10.37,2013-03-28 08:57:00,
2013-03-28 05:02:00,34.0,32.7,31.03,West,275,0.0,0.0,95,0.00,CLR,CLR,0.04,WeatherDisplay:10.37,2013-03-28 09:02:00,
2013-03-28 05:07:00,33.9,32.6,31.03,West,278,1.0,3.0,95,0.00,CLR,CLR,0.04,WeatherDisplay:10.37,2013-03-28 09:07:00,
2013-03-28 05:12:00,34.0,32.7,31.03,West,263,0.0,5.0,95,0.00,CLR,CLR,0.04,WeatherDisplay:10.37,2013-03-28 09:12:00,
2013-03-28 05:17:00,34.0,32.7,31.03,West,259,0.0,0.0,95,0.00,CLR,CLR,0.04,WeatherDisplay:10.37,2013-03-28 09:17:00,
2013-03-28 05:22:00,34.0,32.7,31.03,West,267,2.0,5.0,95,0.00,CLR,CLR,0.04,WeatherDisplay:10.37,2013-03-28 09:22:00,
2013-03-28 05:32:00,34.0,32.7,31.03,West,277,2.0,3.0,95,0.00,CLR,CLR,0.04,WeatherDisplay:10.37,2013-03-28 09:32:00,
2013-03-28 05:37:00,34.0,32.7,31.02,West,277,0.0,3.0,95,0.00,CLR,CLR,0.04,WeatherDisplay:10.37,2013-03-28 09:37:00,
2013-03-28 05:42:00,34.0,32.7,31.03,West,278,0.0,3.0,95,0.00,CLR,CLR,0.04,WeatherDisplay:10.37,2013-03-28 09:42:00,
2013-03-28 05:47:00,34.0,32.7,31.02,West,279,0.0,0.0,95,0.00,CLR,CLR,0.04,WeatherDisplay:10.37,2013-03-28 09:47:00,
2013-03-28 05:52:00,33.9,32.7,31.02,West,279,0.0,0.0,95,0.00,CLR,CLR,0.04,WeatherDisplay:10.37,2013-03-28 09:52:00,
2013-03-28 05:57:00,33.9,32.6,31.02,West,279,0.0,0.0,95,0.00,CLR,CLR,0.04,WeatherDisplay:10.37,2013-03-28 09:57:00,
2013-03-28 06:02:00,33.9,32.6,31.03,West,279,0.0,1.0,95,0.00,CLR,CLR,0.04,WeatherDisplay:10.37,2013-03-28 10:02:00,
2013-03-28 06:12:00,33.9,32.6,31.03,West,279,0.0,0.0,95,0.00,CLR,CLR,0.04,WeatherDisplay:10.37,2013-03-28 10:12:00,
2013-03-28 06:17:00,33.9,32.6,31.03,West,279,0.0,2.0,95,0.00,CLR,CLR,0.04,WeatherDisplay:10.37,2013-03-28 10:17:00,
2013-03-28 06:22:00,33.9,32.6,31.03,West,279,0.0,0.0,95,0.00,CLR,CLR,0.04,WeatherDisplay:10.37,2013-03-28 10:22:00,
2013-03-28 06:27:00,33.8,32.5,31.03,West,279,0.0,0.0,95,0.00,CLR,CLR,0.04,WeatherDisplay:10.37,2013-03-28 10:27:00,
2013-03-28 06:32:00,33.8,32.5,31.03,West,279,0.0,0.0,95,0.00,CLR,CLR,0.04,WeatherDisplay:10.37,2013-03-28 10:32:00,
2013-03-28 06:37:00,33.7,32.5,31.03,West,279,0.0,0.0,95,0.00,CLR,CLR,0.04,WeatherDisplay:10.37,2013-03-28 10:37:00,
2013-03-28 06:42:00,33.7,32.4,31.03,West,279,0.0,0.0,95,0.00,CLR,CLR,0.04,WeatherDisplay:10.37,2013-03-28 10:42:00,
2013-03-28 06:47:00,33.7,32.4,31.04,West,279,0.0,0.0,95,0.00,CLR,CLR,0.04,WeatherDisplay:10.37,2013-03-28 10:47:00,
2013-03-28 06:52:00,33.6,32.3,31.04,West,279,0.0,0.0,95,0.00,CLR,CLR,0.04,WeatherDisplay:10.37,2013-03-28 10:52:00,
2013-03-28 06:57:00,33.6,32.3,31.04,West,279,0.0,0.0,95,0.00,CLR,CLR,0.04,WeatherDisplay:10.37,2013-03-28 10:57:00,
2013-03-28 07:02:00,33.6,32.3,31.04,West,279,0.0,0.0,95,0.00,CLR,CLR,0.04,WeatherDisplay:10.37,2013-03-28 11:02:00,
2013-03-28 07:07:00,33.6,32.3,31.04,West,279,0.0,2.0,95,0.00,CLR,CLR,0.04,WeatherDisplay:10.37,2013-03-28 11:07:00,
2013-03-28 07:12:00,33.6,32.3,31.04,West,279,0.0,3.0,95,0.00,CLR,CLR,0.04,WeatherDisplay:10.37,2013-03-28 11:12:00,
2013-03-28 07:22:00,33.7,32.4,31.05,West,265,0.0,5.0,95,0.00,CLR,CLR,0.04,WeatherDisplay:10.37,2013-03-28 11:22:00,
2013-03-28 07:27:00,33.8,32.5,31.05,West,261,1.0,2.0,95,0.00,CLR,CLR,0.04,WeatherDisplay:10.37,2013-03-28 11:27:00,
2013-03-28 07:37:00,33.8,32.5,31.05,West,261,1.0,3.0,95,0.00,CLR,CLR,0.04,WeatherDisplay:10.37,2013-03-28 11:37:00,
2013-03-28 07:42:00,33.8,32.5,31.05,West,261,0.0,3.0,95,0.00,CLR,CLR,0.04,WeatherDisplay:10.37,2013-03-28 11:42:00,
2013-03-28 07:47:00,33.9,32.6,31.05,West,261,1.0,3.0,95,0.00,CLR,CLR,0.04,WeatherDisplay:10.37,2013-03-28 11:47:00,
2013-03-28 07:52:00,33.9,32.6,31.05,West,261,0.0,0.0,95,0.00,CLR,CLR,0.04,WeatherDisplay:10.37,2013-03-28 11:52:00,
2013-03-28 07:57:00,33.9,32.6,31.06,WSW,247,0.0,5.0,95,0.00,CLR,CLR,0.04,WeatherDisplay:10.37,2013-03-28 11:57:00,
2013-03-28 08:02:00,33.9,32.7,31.06,SW,236,1.0,4.0,95,0.00,CLR,CLR,0.04,WeatherDisplay:10.37,2013-03-28 12:02:00,
2013-03-28 08:07:00,34.0,32.5,31.06,WSW,237,1.0,2.0,94,0.01,RA,RA,0.05,WeatherDisplay:10.37,2013-03-28 12:07:00,
2013-03-28 08:12:00,34.1,32.5,31.06,WSW,237,0.0,0.0,94,0.00,RA,RA,0.05,WeatherDisplay:10.37,2013-03-28 12:12:00,
2013-03-28 08:17:00,34.1,32.6,31.06,WSW,237,0.0,0.0,94,0.00,CLR,CLR,0.05,WeatherDisplay:10.37,2013-03-28 12:17:00,
2013-03-28 08:22:00,34.1,32.6,31.06,WSW,238,1.0,4.0,94,0.00,CLR,CLR,0.05,WeatherDisplay:10.37,2013-03-28 12:22:00,
2013-03-28 08:27:00,34.2,32.7,31.06,WSW,242,0.0,2.0,94,0.00,CLR,CLR,0.05,WeatherDisplay:10.37,2013-03-28 12:27:00,
2013-03-28 08:32:00,34.2,32.7,31.06,WSW,243,0.0,5.0,94,0.00,CLR,CLR,0.05,WeatherDisplay:10.37,2013-03-28 12:32:00,
2013-03-28 08:37:00,34.3,32.8,31.07,WSW,244,1.0,4.0,94,0.00,CLR,CLR,0.05,WeatherDisplay:10.37,2013-03-28 12:37:00,
2013-03-28 08:42:00,34.4,32.6,31.07,WSW,245,2.0,4.0,93,0.00,CLR,CLR,0.05,WeatherDisplay:10.37,2013-03-28 12:42:00,
2013-03-28 08:47:00,34.4,32.6,31.07,WSW,247,2.0,5.0,93,0.00,CLR,CLR,0.05,WeatherDisplay:10.37,2013-03-28 12:47:00,
2013-03-28 08:52:00,34.5,32.4,31.07,WNW,290,2.0,7.0,92,0.00,CLR,CLR,0.05,WeatherDisplay:10.37,2013-03-28 12:52:00,
2013-03-28 08:57:00,34.6,32.2,31.07,WNW,286,2.0,5.0,91,0.00,CLR,CLR,0.05,WeatherDisplay:10.37,2013-03-28 12:57:00,
2013-03-28 09:02:00,34.7,32.3,31.07,West,267,3.0,5.0,91,0.00,CLR,CLR,0.05,WeatherDisplay:10.37,2013-03-28 13:02:00,
2013-03-28 09:07:00,34.7,32.1,31.07,West,271,3.0,6.0,90,0.00,CLR,CLR,0.05,WeatherDisplay:10.37,2013-03-28 13:07:00,
2013-03-28 09:12:00,34.8,32.1,31.07,West,276,0.0,4.0,90,0.00,CLR,CLR,0.05,WeatherDisplay:10.37,2013-03-28 13:12:00,
2013-03-28 09:22:00,34.9,32.3,31.08,WSW,255,1.0,5.0,90,0.00,CLR,CLR,0.05,WeatherDisplay:10.37,2013-03-28 13:22:00,
2013-03-28 09:27:00,35.0,32.1,31.08,West,268,3.0,8.0,89,0.00,CLR,CLR,0.05,WeatherDisplay:10.37,2013-03-28 13:27:00,
2013-03-28 09:32:00,35.1,32.2,31.08,West,275,3.0,6.0,89,0.00,CLR,CLR,0.05,WeatherDisplay:10.37,2013-03-28 13:32:00,
2013-03-28 09:37:00,35.2,32.3,31.08,West,266,2.0,7.0,89,0.00,CLR,CLR,0.05,WeatherDisplay:10.37,2013-03-28 13:37:00,
2013-03-28 09:42:00,35.3,32.1,31.08,West,271,6.0,8.0,88,0.00,CLR,CLR,0.05,WeatherDisplay:10.37,2013-03-28 13:42:00,
2013-03-28 09:47:00,35.3,31.8,31.08,WNW,285,5.0,7.0,87,0.00,CLR,CLR,0.05,WeatherDisplay:10.37,2013-03-28 13:47:00,
2013-03-28 09:52:00,35.4,31.9,31.08,West,280,5.0,6.0,87,0.00,CLR,CLR,0.05,WeatherDisplay:10.37,2013-03-28 13:52:00,
2013-03-28 09:57:00,35.5,32.0,31.08,West,272,6.0,7.0,87,0.00,CLR,CLR,0.05,WeatherDisplay:10.37,2013-03-28 13:57:00,
2013-03-28 10:02:00,35.5,32.0,31.08,West,279,1.0,7.0,87,0.00,CLR,CLR,0.05,WeatherDisplay:10.37,2013-03-28 14:02:00,
2013-03-28 10:07:00,35.6,31.8,31.09,West,268,6.0,8.0,86,0.00,CLR,CLR,0.05,WeatherDisplay:10.37,2013-03-28 14:07:00,
2013-03-28 10:17:00,35.7,31.9,31.09,WNW,287,5.0,8.0,86,0.00,CLR,CLR,0.05,WeatherDisplay:10.37,2013-03-28 14:17:00,
2013-03-28 10:22:00,35.7,31.6,31.09,WNW,289,5.0,7.0,85,0.00,CLR,CLR,0.05,WeatherDisplay:10.37,2013-03-28 14:22:00,
2013-03-28 10:27:00,35.8,32.0,31.09,West,271,1.0,5.0,86,0.00,CLR,CLR,0.05,WeatherDisplay:10.37,2013-03-28 14:27:00,
2013-03-28 10:32:00,35.9,31.8,31.09,West,271,2.0,7.0,85,0.00,CLR,CLR,0.05,WeatherDisplay:10.37,2013-03-28 14:32:00,
2013-03-28 10:42:00,36.1,32.0,31.10,WNW,283,6.0,10.0,85,0.00,CLR,CLR,0.05,WeatherDisplay:10.37,2013-03-28 14:42:00,
2013-03-28 10:47:00,36.1,31.7,31.10,West,279,5.0,8.0,84,0.00,CLR,CLR,0.05,WeatherDisplay:10.37,2013-03-28 14:47:00,
2013-03-28 10:52:00,36.1,31.7,31.10,West,269,3.0,10.0,84,0.00,CLR,CLR,0.05,WeatherDisplay:10.37,2013-03-28 14:52:00,
2013-03-28 10:57:00,36.1,31.7,31.10,West,275,5.0,9.0,84,0.00,CLR,CLR,0.05,WeatherDisplay:10.37,2013-03-28 14:57:00,
2013-03-28 11:02:00,36.1,31.7,31.10,West,279,7.0,12.0,84,0.00,CLR,CLR,0.05,WeatherDisplay:10.37,2013-03-28 15:02:00,
2013-03-28 11:07:00,36.1,31.7,31.10,West,267,3.0,9.0,84,0.00,CLR,CLR,0.05,WeatherDisplay:10.37,2013-03-28 15:07:00,
2013-03-28 11:12:00,36.1,32.0,31.10,West,276,2.0,8.0,85,0.00,CLR,CLR,0.05,WeatherDisplay:10.37,2013-03-28 15:12:00,
2013-03-28 11:17:00,36.2,31.8,31.10,West,277,5.0,9.0,84,0.00,CLR,CLR,0.05,WeatherDisplay:10.37,2013-03-28 15:17:00,
2013-03-28 11:22:00,36.3,32.2,31.11,West,268,2.0,9.0,85,0.00,CLR,CLR,0.05,WeatherDisplay:10.37,2013-03-28 15:22:00,
2013-03-28 11:27:00,36.3,31.9,31.11,West,280,5.0,14.0,84,0.00,CLR,CLR,0.05,WeatherDisplay:10.37,2013-03-28 15:27:00,
2013-03-28 11:32:00,36.3,32.2,31.11,West,280,5.0,12.0,85,0.00,CLR,CLR,0.05,WeatherDisplay:10.37,2013-03-28 15:32:00,
2013-03-28 11:42:00,35.9,31.8,31.11,WNW,282,6.0,10.0,85,0.00,CLR,CLR,0.05,WeatherDisplay:10.37,2013-03-28 15:42:00,
2013-03-28 11:47:00,35.8,32.0,31.12,WNW,301,3.0,8.0,86,0.00,CLR,CLR,0.05,WeatherDisplay:10.37,2013-03-28 15:47:00,
2013-03-28 11:52:00,35.6,32.1,31.12,NW,310,6.0,12.0,87,0.00,CLR,CLR,0.05,WeatherDisplay:10.37,2013-03-28 15:52:00,
2013-03-28 11:57:00,35.4,32.2,31.12,WNW,294,7.0,12.0,88,0.00,CLR,CLR,0.05,WeatherDisplay:10.37,2013-03-28 15:57:00,
2013-03-28 12:02:00,35.3,32.3,31.12,WNW,291,5.0,9.0,89,0.00,CLR,CLR,0.05,WeatherDisplay:10.37,2013-03-28 16:02:00,
2013-03-28 12:07:00,35.2,32.3,31.12,WNW,293,2.0,9.0,89,0.00,CLR,CLR,0.05,WeatherDisplay:10.37,2013-03-28 16:07:00,
2013-03-28 12:12:00,35.3,32.7,31.12,WNW,285,2.0,6.0,90,0.00,CLR,CLR,0.05,WeatherDisplay:10.37,2013-03-28 16:12:00,
2013-03-28 12:17:00,35.3,32.7,31.12,West,263,5.0,7.0,90,0.00,CLR,CLR,0.05,WeatherDisplay:10.37,2013-03-28 16:17:00,
2013-03-28 12:22:00,35.4,32.8,31.12,West,271,3.0,8.0,90,0.00,CLR,CLR,0.05,WeatherDisplay:10.37,2013-03-28 16:22:00,
2013-03-28 12:27:00,35.5,32.6,31.12,West,270,5.0,7.0,89,0.00,CLR,CLR,0.05,WeatherDisplay:10.37,2013-03-28 16:27:00,
2013-03-28 12:32:00,35.7,32.7,31.12,West,272,2.0,12.0,89,0.00,CLR,CLR,0.05,WeatherDisplay:10.37,2013-03-28 16:32:00,
2013-03-28 12:42:00,36.3,33.1,31.11,West,264,5.0,8.0,88,0.00,CLR,CLR,0.05,WeatherDisplay:10.37,2013-03-28 16:42:00,
2013-03-28 12:47:00,36.5,33.6,31.12,West,259,5.0,8.0,89,0.00,CLR,CLR,0.05,WeatherDisplay:10.37,2013-03-28 16:47:00,
2013-03-28 12:52:00,36.6,33.1,31.12,West,266,7.0,8.0,87,0.00,CLR,CLR,0.05,WeatherDisplay:10.37,2013-03-28 16:52:00,
2013-03-28 12:57:00,36.5,33.0,31.12,West,261,6.0,8.0,87,0.00,CLR,CLR,0.05,WeatherDisplay:10.37,2013-03-28 16:57:00,
2013-03-28 13:02:00,36.6,32.8,31.12,WSW,253,7.0,12.0,86,0.00,CLR,CLR,0.05,WeatherDisplay:10.37,2013-03-28 17:02:00,
2013-03-28 13:07:00,36.8,33.9,31.12,WSW,258,6.0,10.0,89,0.00,CLR,CLR,0.05,WeatherDisplay:10.37,2013-03-28 17:07:00,
2013-03-28 13:12:00,36.9,33.1,31.12,West,263,5.0,9.0,86,0.00,CLR,CLR,0.05,WeatherDisplay:10.37,2013-03-28 17:12:00,
2013-03-28 13:17:00,37.1,33.3,31.12,West,259,6.0,10.0,86,0.00,CLR,CLR,0.05,WeatherDisplay:10.37,2013-03-28 17:17:00,
2013-03-28 13:22:00,37.3,33.3,31.11,West,269,6.0,9.0,85,0.00,CLR,CLR,0.05,WeatherDisplay:10.37,2013-03-28 17:22:00,
2013-03-28 13:27:00,37.6,33.5,31.12,West,271,6.0,9.0,85,0.00,CLR,CLR,0.05,WeatherDisplay:10.37,2013-03-28 17:27:00,
2013-03-28 13:37:00,37.9,33.5,31.11,WSW,257,8.0,10.0,84,0.00,CLR,CLR,0.05,WeatherDisplay:10.37,2013-03-28 17:37:00,
2013-03-28 13:42:00,38.3,34.4,31.11,WSW,255,5.0,9.0,86,0.00,CLR,CLR,0.05,WeatherDisplay:10.37,2013-03-28 17:42:00,
2013-03-28 13:47:00,38.7,34.5,31.11,WSW,247,7.0,10.0,85,0.00,CLR,CLR,0.05,WeatherDisplay:10.37,2013-03-28 17:47:00,
2013-03-28 13:52:00,38.9,34.8,31.11,WSW,254,7.0,10.0,85,0.00,CLR,CLR,0.05,WeatherDisplay:10.37,2013-03-28 17:52:00,
2013-03-28 13:57:00,38.7,34.0,31.11,WSW,255,7.0,13.0,83,0.00,CLR,CLR,0.05,WeatherDisplay:10.37,2013-03-28 17:57:00,
2013-03-28 14:02:00,38.6,33.9,31.11,WSW,256,7.0,12.0,83,0.00,CLR,CLR,0.05,WeatherDisplay:10.37,2013-03-28 18:02:00,
2013-03-28 14:12:00,38.7,34.2,31.11,WNW,284,6.0,9.0,84,0.00,CLR,CLR,0.05,WeatherDisplay:10.37,2013-03-28 18:12:00,
2013-03-28 14:17:00,38.8,34.1,31.11,WNW,282,6.0,11.0,83,0.00,CLR,CLR,0.05,WeatherDisplay:10.37,2013-03-28 18:17:00,
2013-03-28 14:22:00,39.1,34.4,31.11,West,273,7.0,12.0,83,0.00,CLR,CLR,0.05,WeatherDisplay:10.37,2013-03-28 18:22:00,
2013-03-28 14:27:00,39.2,34.5,31.11,WSW,253,5.0,12.0,83,0.00,CLR,CLR,0.05,WeatherDisplay:10.37,2013-03-28 18:27:00,
2013-03-28 14:32:00,39.4,34.7,31.11,WSW,257,7.0,12.0,83,0.00,CLR,CLR,0.05,WeatherDisplay:10.37,2013-03-28 18:32:00,
2013-03-28 14:37:00,39.6,34.8,31.11,WSW,258,7.0,9.0,83,0.00,CLR,CLR,0.05,WeatherDisplay:10.37,2013-03-28 18:37:00,
2013-03-28 14:42:00,39.9,34.9,31.11,WSW,257,3.0,7.0,82,0.00,CLR,CLR,0.05,WeatherDisplay:10.37,2013-03-28 18:42:00,
2013-03-28 14:47:00,40.1,34.5,31.11,West,275,6.0,10.0,80,0.00,CLR,CLR,0.05,WeatherDisplay:10.37,2013-03-28 18:47:00,
2013-03-28 14:52:00,39.9,33.9,31.11,WNW,299,6.0,12.0,79,0.00,CLR,CLR,0.05,WeatherDisplay:10.37,2013-03-28 18:52:00,
2013-03-28 14:57:00,39.8,34.4,31.11,WNW,285,5.0,8.0,81,0.00,CLR,CLR,0.05,WeatherDisplay:10.37,2013-03-28 18:57:00,
2013-03-28 15:02:00,40.0,34.0,31.11,West,281,1.0,10.0,79,0.00,CLR,CLR,0.05,WeatherDisplay:10.37,2013-03-28 19:02:00,
2013-03-28 15:07:00,40.4,35.0,31.11,WNW,283,5.0,7.0,81,0.00,CLR,CLR,0.05,WeatherDisplay:10.37,2013-03-28 19:07:00,
2013-03-28 15:17:00,40.9,35.2,31.10,West,260,2.0,8.0,80,0.00,CLR,CLR,0.05,WeatherDisplay:10.37,2013-03-28 19:17:00,
2013-03-28 15:22:00,40.8,34.2,31.10,West,279,5.0,10.0,77,0.00,CLR,CLR,0.05,WeatherDisplay:10.37,2013-03-28 19:22:00,
2013-03-28 15:27:00,40.7,34.4,31.10,West,280,5.0,10.0,78,0.00,CLR,CLR,0.05,WeatherDisplay:10.37,2013-03-28 19:27:00,
2013-03-28 15:32:00,40.6,34.3,31.10,West,266,5.0,12.0,78,0.00,CLR,CLR,0.05,WeatherDisplay:10.37,2013-03-28 19:32:00,
2013-03-28 15:37:00,40.6,34.3,31.10,West,259,6.0,9.0,78,0.00,CLR,CLR,0.05,WeatherDisplay:10.37,2013-03-28 19:37:00,
2013-03-28 15:42:00,40.6,34.0,31.10,West,273,5.0,9.0,77,0.00,CLR,CLR,0.05,WeatherDisplay:10.37,2013-03-28 19:42:00,
2013-03-28 15:47:00,40.7,33.8,31.10,WNW,290,3.0,8.0,76,0.00,CLR,CLR,0.05,WeatherDisplay:10.37,2013-03-28 19:47:00,
2013-03-28 15:52:00,41.1,34.1,31.10,West,269,7.0,9.0,76,0.00,CLR,CLR,0.05,WeatherDisplay:10.37,2013-03-28 19:52:00,
2013-03-28 15:57:00,41.3,34.9,31.10,WSW,256,6.0,10.0,78,0.00,CLR,CLR,0.05,WeatherDisplay:10.37,2013-03-28 19:57:00,
2013-03-28 16:02:00,41.2,33.6,31.10,WNW,290,5.0,12.0,74,0.00,CLR,CLR,0.05,WeatherDisplay:10.37,2013-03-28 20:02:00,
2013-03-28 16:12:00,41.4,34.7,31.10,West,278,8.0,10.0,77,0.00,CLR,CLR,0.05,WeatherDisplay:10.37,2013-03-28 20:12:00,
2013-03-28 16:22:00,41.3,34.0,31.10,West,270,5.0,12.0,75,0.00,CLR,CLR,0.05,WeatherDisplay:10.37,2013-03-28 20:22:00,
2013-03-28 16:27:00,41.4,33.7,31.10,West,277,5.0,8.0,74,0.00,CLR,CLR,0.05,WeatherDisplay:10.37,2013-03-28 20:27:00,
2013-03-28 16:32:00,41.4,33.8,31.10,West,275,6.0,9.0,74,0.00,CLR,CLR,0.05,WeatherDisplay:10.37,2013-03-28 20:32:00,
2013-03-28 16:37:00,41.6,34.9,31.10,West,269,5.0,8.0,77,0.00,CLR,CLR,0.05,WeatherDisplay:10.37,2013-03-28 20:37:00,
2013-03-28 16:42:00,41.6,33.2,31.10,West,281,3.0,8.0,72,0.00,CLR,CLR,0.05,WeatherDisplay:10.37,2013-03-28 20:42:00,
2013-03-28 16:47:00,41.7,34.0,31.10,WNW,286,5.0,9.0,74,0.00,CLR,CLR,0.05,WeatherDisplay:10.37,2013-03-28 20:47:00,
2013-03-28 16:52:00,41.7,33.7,31.10,WNW,284,3.0,6.0,73,0.00,CLR,CLR,0.05,WeatherDisplay:10.37,2013-03-28 20:52:00,
2013-03-28 16:57:00,41.8,34.5,31.10,West,275,5.0,7.0,75,0.00,CLR,CLR,0.05,WeatherDisplay:10.37,2013-03-28 20:57:00,
2013-03-28 17:02:00,41.8,35.1,31.10,West,264,5.0,8.0,77,0.00,CLR,CLR,0.05,WeatherDisplay:10.37,2013-03-28 21:02:00,
2013-03-28 17:07:00,41.7,33.7,31.10,WNW,295,7.0,10.0,73,0.00,CLR,CLR,0.05,WeatherDisplay:10.37,2013-03-28 21:07:00,
2013-03-28 17:12:00,41.6,33.2,31.10,WNW,300,6.0,8.0,72,0.00,CLR,CLR,0.05,WeatherDisplay:10.37,2013-03-28 21:12:00,
2013-03-28 17:17:00,41.7,34.3,31.10,WNW,302,5.0,10.0,75,0.00,CLR,CLR,0.05,WeatherDisplay:10.37,2013-03-28 21:17:00,
2013-03-28 17:22:00,41.7,33.7,31.10,WNW,292,3.0,9.0,73,0.00,CLR,CLR,0.05,WeatherDisplay:10.37,2013-03-28 21:22:00,
2013-03-28 17:27:00,41.6,33.2,31.10,WNW,292,0.0,8.0,72,0.00,CLR,CLR,0.05,WeatherDisplay:10.37,2013-03-28 21:27:00,
2013-03-28 17:32:00,41.5,33.5,31.11,NNW,333,1.0,7.0,73,0.00,CLR,CLR,0.05,WeatherDisplay:10.37,2013-03-28 21:32:00,
2013-03-28 17:37:00,41.4,33.4,31.11,NW,326,5.0,10.0,73,0.00,CLR,CLR,0.05,WeatherDisplay:10.37,2013-03-28 21:37:00,
2013-03-28 17:42:00,41.2,33.2,31.11,NW,317,5.0,8.0,73,0.00,CLR,CLR,0.05,WeatherDisplay:10.37,2013-03-28 21:42:00,
2013-03-28 17:47:00,41.1,33.4,31.11,NW,314,2.0,6.0,74,0.00,CLR,CLR,0.05,WeatherDisplay:10.37,2013-03-28 21:47:00,
2013-03-28 17:52:00,41.0,33.3,31.11,WNW,285,5.0,7.0,74,0.00,CLR,CLR,0.05,WeatherDisplay:10.37,2013-03-28 21:52:00,
2013-03-28 17:57:00,40.9,33.6,31.11,WNW,287,5.0,7.0,75,0.00,CLR,CLR,0.05,WeatherDisplay:10.37,2013-03-28 21:57:00,
2013-03-28 18:02:00,40.9,33.6,31.11,West,277,3.0,6.0,75,0.00,CLR,CLR,0.05,WeatherDisplay:10.37,2013-03-28 22:02:00,
2013-03-28 18:07:00,40.8,33.5,31.11,West,274,1.0,6.0,75,0.00,CLR,CLR,0.05,WeatherDisplay:10.37,2013-03-28 22:07:00,
2013-03-28 18:12:00,40.7,33.1,31.11,WNW,287,5.0,8.0,74,0.00,CLR,CLR,0.05,WeatherDisplay:10.37,2013-03-28 22:12:00,
2013-03-28 18:17:00,40.6,33.0,31.11,NW,306,3.0,7.0,74,0.00,CLR,CLR,0.05,WeatherDisplay:10.37,2013-03-28 22:17:00,
2013-03-28 18:22:00,40.6,33.3,31.11,NW,313,1.0,6.0,75,0.00,CLR,CLR,0.05,WeatherDisplay:10.37,2013-03-28 22:22:00,
2013-03-28 18:27:00,40.5,33.2,31.11,NW,306,3.0,6.0,75,0.00,CLR,CLR,0.05,WeatherDisplay:10.37,2013-03-28 22:27:00,
2013-03-28 18:32:00,40.5,33.2,31.12,WNW,289,0.0,4.0,75,0.00,CLR,CLR,0.05,WeatherDisplay:10.37,2013-03-28 22:32:00,
2013-03-28 18:37:00,40.5,33.2,31.12,West,274,1.0,3.0,75,0.00,CLR,CLR,0.05,WeatherDisplay:10.37,2013-03-28 22:37:00,
2013-03-28 18:42:00,40.5,33.5,31.12,WSW,251,3.0,6.0,76,0.00,CLR,CLR,0.05,WeatherDisplay:10.37,2013-03-28 22:42:00,
2013-03-28 18:47:00,40.4,34.1,31.12,WSW,247,3.0,6.0,78,0.00,CLR,CLR,0.05,WeatherDisplay:10.37,2013-03-28 22:47:00,
2013-03-28 18:52:00,40.4,33.1,31.12,WSW,252,3.0,5.0,75,0.00,CLR,CLR,0.05,WeatherDisplay:10.37,2013-03-28 22:52:00,
2013-03-28 19:02:00,40.2,33.2,31.12,West,261,0.0,4.0,76,0.00,CLR,CLR,0.05,WeatherDisplay:10.37,2013-03-28 23:02:00,
2013-03-28 19:12:00,40.2,33.6,31.12,West,263,1.0,5.0,77,0.00,CLR,CLR,0.05,WeatherDisplay:10.37,2013-03-28 23:12:00,
2013-03-28 19:17:00,40.0,33.4,31.12,West,263,2.0,6.0,77,0.00,CLR,CLR,0.05,WeatherDisplay:10.37,2013-03-28 23:17:00,
2013-03-28 19:22:00,39.9,33.3,31.13,West,264,2.0,5.0,77,0.00,CLR,CLR,0.05,WeatherDisplay:10.37,2013-03-28 23:22:00,
2013-03-28 19:32:00,39.8,33.5,31.13,West,266,2.0,4.0,78,0.00,CLR,CLR,0.05,WeatherDisplay:10.37,2013-03-28 23:32:00,
2013-03-28 19:37:00,39.7,33.1,31.13,West,267,1.0,4.0,77,0.00,CLR,CLR,0.05,WeatherDisplay:10.37,2013-03-28 23:37:00,
2013-03-28 19:42:00,39.7,33.4,31.13,West,269,2.0,3.0,78,0.00,CLR,CLR,0.05,WeatherDisplay:10.37,2013-03-28 23:42:00,
2013-03-28 19:52:00,39.6,33.3,31.13,West,269,0.0,1.0,78,0.00,CLR,CLR,0.05,WeatherDisplay:10.37,2013-03-28 23:52:00,
2013-03-28 19:57:00,39.5,33.2,31.13,West,269,2.0,4.0,78,0.00,CLR,CLR,0.05,WeatherDisplay:10.37,2013-03-28 23:57:00,
2013-03-28 20:07:00,39.4,33.1,31.13,West,271,0.0,2.0,78,0.00,CLR,CLR,0.05,WeatherDisplay:10.37,2013-03-29 00:07:00,
2013-03-28 20:12:00,39.3,33.4,31.13,West,271,0.0,0.0,79,0.00,CLR,CLR,0.05,WeatherDisplay:10.37,2013-03-29 00:12:00,
2013-03-28 20:17:00,39.3,33.3,31.13,West,271,0.0,1.0,79,0.00,CLR,CLR,0.05,WeatherDisplay:10.37,2013-03-29 00:17:00,
2013-03-28 20:22:00,39.2,33.2,31.13,West,271,0.0,0.0,79,0.00,CLR,CLR,0.05,WeatherDisplay:10.37,2013-03-29 00:22:00,
2013-03-28 20:27:00,39.1,33.2,31.13,West,271,0.0,1.0,79,0.00,CLR,CLR,0.05,WeatherDisplay:10.37,2013-03-29 00:27:00,
2013-03-28 20:32:00,39.1,33.1,31.13,West,271,0.0,0.0,79,0.00,CLR,CLR,0.05,WeatherDisplay:10.37,2013-03-29 00:32:00,
2013-03-28 20:37:00,39.1,33.4,31.13,West,271,0.0,0.0,80,0.00,CLR,CLR,0.05,WeatherDisplay:10.37,2013-03-29 00:37:00,
2013-03-28 20:42:00,39.0,33.0,31.13,West,271,0.0,0.0,79,0.00,CLR,CLR,0.05,WeatherDisplay:10.37,2013-03-29 00:42:00,
2013-03-28 20:47:00,38.9,33.3,31.13,West,271,0.0,0.0,80,0.00,CLR,CLR,0.05,WeatherDisplay:10.37,2013-03-29 00:47:00,
2013-03-28 20:52:00,38.9,33.6,31.14,West,271,0.0,0.0,81,0.00,CLR,CLR,0.05,WeatherDisplay:10.37,2013-03-29 00:52:00,
2013-03-28 20:57:00,38.8,33.2,31.14,West,271,0.0,0.0,80,0.00,CLR,CLR,0.05,WeatherDisplay:10.37,2013-03-29 00:57:00,
2013-03-28 21:02:00,38.8,33.8,31.13,West,271,0.0,0.0,82,0.00,CLR,CLR,0.05,WeatherDisplay:10.37,2013-03-29 01:02:00,
2013-03-28 21:07:00,38.6,33.6,31.13,West,271,0.0,2.0,82,0.00,CLR,CLR,0.05,WeatherDisplay:10.37,2013-03-29 01:07:00,
2013-03-28 21:12:00,38.4,33.1,31.13,West,271,0.0,0.0,81,0.00,CLR,CLR,0.05,WeatherDisplay:10.37,2013-03-29 01:12:00,
2013-03-28 21:17:00,38.2,33.2,31.13,West,271,0.0,0.0,82,0.00,CLR,CLR,0.05,WeatherDisplay:10.37,2013-03-29 01:17:00,
2013-03-28 21:22:00,38.0,33.6,31.13,West,271,0.0,0.0,84,0.00,CLR,CLR,0.05,WeatherDisplay:10.37,2013-03-29 01:22:00,
2013-03-28 21:27:00,37.6,33.5,31.13,West,271,0.0,0.0,85,0.00,CLR,CLR,0.05,WeatherDisplay:10.37,2013-03-29 01:27:00,
2013-03-28 21:32:00,37.3,33.5,31.13,West,271,0.0,0.0,86,0.00,CLR,CLR,0.05,WeatherDisplay:10.37,2013-03-29 01:32:00,
2013-03-28 21:37:00,37.1,33.6,31.13,West,271,0.0,0.0,87,0.00,CLR,CLR,0.05,WeatherDisplay:10.37,2013-03-29 01:37:00,
2013-03-28 21:42:00,36.8,33.3,31.13,West,271,0.0,0.0,87,0.00,CLR,CLR,0.05,WeatherDisplay:10.37,2013-03-29 01:42:00,
2013-03-28 21:47:00,36.7,33.5,31.13,West,271,0.0,0.0,88,0.00,CLR,CLR,0.05,WeatherDisplay:10.37,2013-03-29 01:47:00,
2013-03-28 21:52:00,36.5,33.3,31.13,West,271,0.0,0.0,88,0.00,CLR,CLR,0.05,WeatherDisplay:10.37,2013-03-29 01:52:00,
2013-03-28 21:57:00,36.4,33.2,31.13,West,271,0.0,0.0,88,0.00,CLR,CLR,0.05,WeatherDisplay:10.37,2013-03-29 01:57:00,
2013-03-28 22:02:00,36.4,33.1,31.14,West,271,0.0,0.0,88,0.00,CLR,CLR,0.05,WeatherDisplay:10.37,2013-03-29 02:02:00,
2013-03-28 22:07:00,36.3,33.4,31.14,West,271,0.0,0.0,89,0.00,CLR,CLR,0.05,WeatherDisplay:10.37,2013-03-29 02:07:00,
2013-03-28 22:12:00,36.3,33.4,31.14,West,271,0.0,0.0,89,0.00,CLR,CLR,0.05,WeatherDisplay:10.37,2013-03-29 02:12:00,
2013-03-28 22:17:00,36.2,33.3,31.14,West,271,0.0,0.0,89,0.00,CLR,CLR,0.05,WeatherDisplay:10.37,2013-03-29 02:17:00,
2013-03-28 22:22:00,36.2,33.3,31.13,West,271,0.0,0.0,89,0.00,CLR,CLR,0.05,WeatherDisplay:10.37,2013-03-29 02:22:00,
2013-03-28 22:32:00,36.1,33.2,31.13,West,271,0.0,0.0,89,0.00,CLR,CLR,0.05,WeatherDisplay:10.37,2013-03-29 02:32:00,
2013-03-28 22:37:00,36.1,33.2,31.13,West,271,0.0,0.0,89,0.00,CLR,CLR,0.05,WeatherDisplay:10.37,2013-03-29 02:37:00,
2013-03-28 22:47:00,36.2,33.3,31.14,West,271,0.0,0.0,89,0.00,CLR,CLR,0.05,WeatherDisplay:10.37,2013-03-29 02:47:00,
2013-03-28 22:52:00,36.1,33.2,31.14,West,271,0.0,0.0,89,0.00,CLR,CLR,0.05,WeatherDisplay:10.37,2013-03-29 02:52:00,
2013-03-28 23:02:00,36.1,33.2,31.14,West,271,0.0,0.0,89,0.00,CLR,CLR,0.05,WeatherDisplay:10.37,2013-03-29 03:02:00,
2013-03-28 23:07:00,36.1,33.2,31.14,West,271,0.0,0.0,89,0.00,CLR,CLR,0.05,WeatherDisplay:10.37,2013-03-29 03:07:00,
2013-03-28 23:12:00,36.1,33.2,31.14,West,271,0.0,0.0,89,0.00,CLR,CLR,0.05,WeatherDisplay:10.37,2013-03-29 03:12:00,
2013-03-28 23:17:00,36.2,33.2,31.14,West,271,0.0,0.0,89,0.00,CLR,CLR,0.05,WeatherDisplay:10.37,2013-03-29 03:17:00,
2013-03-28 23:22:00,36.1,33.2,31.14,West,271,0.0,0.0,89,0.00,CLR,CLR,0.05,WeatherDisplay:10.37,2013-03-29 03:22:00,
2013-03-28 23:27:00,36.1,33.2,31.14,West,271,0.0,0.0,89,0.00,CLR,CLR,0.05,WeatherDisplay:10.37,2013-03-29 03:27:00,
2013-03-28 23:32:00,36.1,33.2,31.14,West,271,0.0,0.0,89,0.00,CLR,CLR,0.05,WeatherDisplay:10.37,2013-03-29 03:32:00,
2013-03-28 23:37:00,36.1,33.2,31.14,West,271,0.0,0.0,89,0.00,CLR,CLR,0.05,WeatherDisplay:10.37,2013-03-29 03:37:00,
2013-03-28 23:42:00,36.0,33.4,31.14,West,271,0.0,0.0,90,0.00,CLR,CLR,0.05,WeatherDisplay:10.37,2013-03-29 03:42:00,
2013-03-28 23:47:00,35.9,33.3,31.14,West,271,0.0,0.0,90,0.00,CLR,CLR,0.05,WeatherDisplay:10.37,2013-03-29 03:47:00,
2013-03-28 23:52:00,35.8,33.4,31.14,West,271,0.0,0.0,91,0.00,CLR,CLR,0.05,WeatherDisplay:10.37,2013-03-29 03:52:00,
2013-03-28 23:57:00,35.7,33.3,31.14,West,271,0.0,0.0,91,0.00,CLR,CLR,0.05,WeatherDisplay:10.37,2013-03-29 03:57:00,